Terminal Aerodrome Forecast
Issued by NWS

Home | Current Version | Previous Version | Text Only | Print | Product List | Glossary On
Versions: 1 2 3 4 5 6 7 8 9 10 11 12 13 14 15 16 17 18 19
000
FTUS43 KABR 240300 AAB
TAFMBG
TAF AMD
KMBG 240312Z 2403/2424 14011KT P6SM OVC007
     FM240600 13008KT P6SM SCT120
     FM241200 VRB04KT P6SM SKC=

USA.gov is the U.S. government's official web portal to all federal, state and local government web resources and services.